sensor_id;sensor_type;location;lat;lon;timestamp;pressure;altitude;pressure_sealevel;temperature;humidity
21520;BME280;10921;53.614;9.882;2023-07-29T00:00:47;100488.72;;;19.36;93.87
21520;BME280;10921;53.614;9.882;2023-07-29T00:03:13;100441.25;;;19.00;94.50
21520;BME280;10921;53.614;9.882;2023-07-29T00:05:40;100479.78;;;19.22;94.02
21520;BME280;10921;53.614;9.882;2023-07-29T00:08:07;100474.97;;;19.17;94.06
21520;BME280;10921;53.614;9.882;2023-07-29T00:10:36;100481.81;;;19.13;95.09
21520;BME280;10921;53.614;9.882;2023-07-29T00:13:04;100473.50;;;19.08;94.90
21520;BME280;10921;53.614;9.882;2023-07-29T00:15:31;100449.38;;;18.93;94.87
21520;BME280;10921;53.614;9.882;2023-07-29T00:17:58;100464.53;;;19.01;95.47
21520;BME280;10921;53.614;9.882;2023-07-29T00:20:25;100464.13;;;18.97;95.03
21520;BME280;10921;53.614;9.882;2023-07-29T00:22:51;100464.31;;;18.96;95.36
21520;BME280;10921;53.614;9.882;2023-07-29T00:25:21;100449.56;;;18.92;95.84
21520;BME280;10921;53.614;9.882;2023-07-29T00:27:48;100449.78;;;18.90;96.24
21520;BME280;10921;53.614;9.882;2023-07-29T00:30:15;100449.56;;;18.92;96.71
21520;BME280;10921;53.614;9.882;2023-07-29T00:32:41;100415.00;;;18.68;96.35
21520;BME280;10921;53.614;9.882;2023-07-29T00:35:08;100437.91;;;18.85;96.73
21520;BME280;10921;53.614;9.882;2023-07-29T00:37:35;100439.78;;;18.91;96.84
21520;BME280;10921;53.614;9.882;2023-07-29T00:40:12;100437.28;;;18.89;97.55
21520;BME280;10921;53.614;9.882;2023-07-29T00:42:39;100441.47;;;18.92;96.46
21520;BME280;10921;53.614;9.882;2023-07-29T00:45:06;100428.31;;;18.82;96.45
21520;BME280;10921;53.614;9.882;2023-07-29T00:47:34;100425.63;;;18.89;96.20
21520;BME280;10921;53.614;9.882;2023-07-29T00:50:01;100409.41;;;18.76;96.54
21520;BME280;10921;53.614;9.882;2023-07-29T00:52:28;100427.91;;;18.85;97.19
21520;BME280;10921;53.614;9.882;2023-07-29T00:54:54;100436.63;;;18.81;96.86
21520;BME280;10921;53.614;9.882;2023-07-29T00:57:21;100439.97;;;18.83;97.47
21520;BME280;10921;53.614;9.882;2023-07-29T00:59:48;100427.28;;;18.83;98.20
21520;BME280;10921;53.614;9.882;2023-07-29T01:02:15;100427.28;;;18.83;98.40
21520;BME280;10921;53.614;9.882;2023-07-29T01:04:41;100431.44;;;18.86;98.41
21520;BME280;10921;53.614;9.882;2023-07-29T01:07:21;100389.19;;;18.65;99.90
21520;BME280;10921;53.614;9.882;2023-07-29T01:10:00;100418.38;;;18.89;98.51
21520;BME280;10921;53.614;9.882;2023-07-29T01:12:42;100412.75;;;18.91;99.71
21520;BME280;10921;53.614;9.882;2023-07-29T01:15:16;100408.38;;;18.90;98.83
21520;BME280;10921;53.614;9.882;2023-07-29T01:17:48;100410.06;;;18.91;98.29
21520;BME280;10921;53.614;9.882;2023-07-29T01:20:16;100411.91;;;18.97;98.37
21520;BME280;10921;53.614;9.882;2023-07-29T01:22:43;100400.06;;;18.85;98.45
21520;BME280;10921;53.614;9.882;2023-07-29T01:25:10;100409.84;;;18.99;98.66
21520;BME280;10921;53.614;9.882;2023-07-29T01:27:37;100413.59;;;19.05;98.71
21520;BME280;10921;53.614;9.882;2023-07-29T01:30:04;100402.78;;;19.05;98.98
21520;BME280;10921;53.614;9.882;2023-07-29T01:35:42;100416.09;;;19.19;99.44
21520;BME280;10921;53.614;9.882;2023-07-29T01:38:24;100378.03;;;19.08;100.00
21520;BME280;10921;53.614;9.882;2023-07-29T01:40:56;100410.69;;;19.19;98.88
21520;BME280;10921;53.614;9.882;2023-07-29T01:43:22;100398.41;;;19.17;98.78
21520;BME280;10921;53.614;9.882;2023-07-29T01:45:51;100415.88;;;19.27;99.12
21520;BME280;10921;53.614;9.882;2023-07-29T01:48:18;100425.03;;;19.33;99.09
21520;BME280;10921;53.614;9.882;2023-07-29T01:50:44;100427.97;;;19.38;99.25
21520;BME280;10921;53.614;9.882;2023-07-29T01:53:11;100418.81;;;19.39;99.51
21520;BME280;10921;53.614;9.882;2023-07-29T01:55:38;100409.03;;;19.38;99.98
21520;BME280;10921;53.614;9.882;2023-07-29T01:58:05;100413.38;;;19.46;100.00
21520;BME280;10921;53.614;9.882;2023-07-29T02:00:31;100405.66;;;19.43;100.00
21520;BME280;10921;53.614;9.882;2023-07-29T02:02:58;100413.63;;;19.51;100.00
21520;BME280;10921;53.614;9.882;2023-07-29T02:05:24;100401.97;;;19.50;100.00
21520;BME280;10921;53.614;9.882;2023-07-29T02:07:51;100383.84;;;19.51;100.00
21520;BME280;10921;53.614;9.882;2023-07-29T02:10:17;100390.50;;;19.55;100.00
21520;BME280;10921;53.614;9.882;2023-07-29T02:12:44;100387.56;;;19.56;100.00
21520;BME280;10921;53.614;9.882;2023-07-29T02:15:11;100380.69;;;19.60;100.00
21520;BME280;10921;53.614;9.882;2023-07-29T02:17:37;100349.91;;;19.48;100.00
21520;BME280;10921;53.614;9.882;2023-07-29T02:20:04;100370.91;;;19.66;100.00
21520;BME280;10921;53.614;9.882;2023-07-29T02:22:32;100373.00;;;19.71;100.00
21520;BME280;10921;53.614;9.882;2023-07-29T02:24:58;100387.13;;;19.79;100.00
21520;BME280;10921;53.614;9.882;2023-07-29T02:27:25;100368.78;;;19.75;100.00
21520;BME280;10921;53.614;9.882;2023-07-29T02:29:53;100380.63;;;19.87;100.00
21520;BME280;10921;53.614;9.882;2023-07-29T02:32:21;100379.16;;;19.91;100.00
21520;BME280;10921;53.614;9.882;2023-07-29T02:34:48;100378.75;;;19.94;100.00
21520;BME280;10921;53.614;9.882;2023-07-29T02:37:15;100370.81;;;19.99;100.00
21520;BME280;10921;53.614;9.882;2023-07-29T02:39:41;100375.78;;;20.02;100.00
21520;BME280;10921;53.614;9.882;2023-07-29T02:42:08;100367.22;;;20.05;100.00
21520;BME280;10921;53.614;9.882;2023-07-29T02:44:34;100362.66;;;20.06;100.00
21520;BME280;10921;53.614;9.882;2023-07-29T02:47:01;100372.84;;;20.10;100.00
21520;BME280;10921;53.614;9.882;2023-07-29T02:49:28;100358.69;;;20.08;100.00
21520;BME280;10921;53.614;9.882;2023-07-29T02:51:54;100374.09;;;20.08;100.00
21520;BME280;10921;53.614;9.882;2023-07-29T02:54:21;100365.34;;;20.06;100.00
21520;BME280;10921;53.614;9.882;2023-07-29T02:56:50;100370.91;;;20.17;100.00
21520;BME280;10921;53.614;9.882;2023-07-29T02:59:16;100370.28;;;20.22;100.00
21520;BME280;10921;53.614;9.882;2023-07-29T03:01:43;100371.13;;;20.22;100.00
21520;BME280;10921;53.614;9.882;2023-07-29T03:04:09;100362.78;;;20.24;100.00
21520;BME280;10921;53.614;9.882;2023-07-29T03:06:39;100375.91;;;20.27;100.00
21520;BME280;10921;53.614;9.882;2023-07-29T03:09:05;100369.00;;;20.31;100.00
21520;BME280;10921;53.614;9.882;2023-07-29T03:11:32;100374.44;;;20.31;100.00
21520;BME280;10921;53.614;9.882;2023-07-29T03:13:58;100373.13;;;20.33;100.00
21520;BME280;10921;53.614;9.882;2023-07-29T03:16:25;100365.69;;;20.29;100.00
21520;BME280;10921;53.614;9.882;2023-07-29T03:18:51;100340.53;;;20.15;100.00
21520;BME280;10921;53.614;9.882;2023-07-29T03:21:18;100370.41;;;20.33;100.00
21520;BME280;10921;53.614;9.882;2023-07-29T03:23:45;100379.38;;;20.34;100.00
21520;BME280;10921;53.614;9.882;2023-07-29T03:26:11;100326.59;;;20.05;100.00
21520;BME280;10921;53.614;9.882;2023-07-29T03:28:42;100366.06;;;20.32;100.00
21520;BME280;10921;53.614;9.882;2023-07-29T03:31:09;100372.75;;;20.30;100.00
21520;BME280;10921;53.614;9.882;2023-07-29T03:33:36;100372.97;;;20.28;100.00
21520;BME280;10921;53.614;9.882;2023-07-29T03:36:03;100332.22;;;20.03;100.00
21520;BME280;10921;53.614;9.882;2023-07-29T03:38:30;100350.75;;;20.13;100.00
21520;BME280;10921;53.614;9.882;2023-07-29T03:40:56;100353.88;;;20.10;100.00
21520;BME280;10921;53.614;9.882;2023-07-29T03:43:23;100346.59;;;20.11;100.00
21520;BME280;10921;53.614;9.882;2023-07-29T03:45:50;100366.94;;;20.26;100.00
21520;BME280;10921;53.614;9.882;2023-07-29T03:48:16;100366.09;;;20.26;100.00
21520;BME280;10921;53.614;9.882;2023-07-29T03:50:43;100367.34;;;20.23;100.00
21520;BME280;10921;53.614;9.882;2023-07-29T03:53:09;100380.47;;;20.26;100.00
21520;BME280;10921;53.614;9.882;2023-07-29T03:55:36;100357.00;;;20.14;100.00
21520;BME280;10921;53.614;9.882;2023-07-29T03:58:03;100379.22;;;20.29;100.00
21520;BME280;10921;53.614;9.882;2023-07-29T04:00:29;100314.38;;;19.89;100.00
21520;BME280;10921;53.614;9.882;2023-07-29T04:02:56;100373.97;;;20.34;100.00
21520;BME280;10921;53.614;9.882;2023-07-29T04:05:22;100370.03;;;20.36;100.00
21520;BME280;10921;53.614;9.882;2023-07-29T04:07:49;100373.56;;;20.37;100.00
21520;BME280;10921;53.614;9.882;2023-07-29T04:10:16;100352.97;;;20.23;100.00
21520;BME280;10921;53.614;9.882;2023-07-29T04:12:43;100378.13;;;20.43;100.00
21520;BME280;10921;53.614;9.882;2023-07-29T04:15:09;100376.88;;;20.46;100.00
21520;BME280;10921;53.614;9.882;2023-07-29T04:17:36;100370.00;;;20.43;100.00
21520;BME280;10921;53.614;9.882;2023-07-29T04:20:04;100365.41;;;20.44;100.00
21520;BME280;10921;53.614;9.882;2023-07-29T04:22:30;100374.75;;;20.48;100.00
21520;BME280;10921;53.614;9.882;2023-07-29T04:24:57;100366.03;;;20.46;100.00
21520;BME280;10921;53.614;9.882;2023-07-29T04:27:23;100374.53;;;20.49;100.00
21520;BME280;10921;53.614;9.882;2023-07-29T04:29:50;100373.50;;;20.50;100.00
21520;BME280;10921;53.614;9.882;2023-07-29T04:32:16;100373.50;;;20.50;100.00
21520;BME280;10921;53.614;9.882;2023-07-29T04:34:43;100366.88;;;20.46;100.00
21520;BME280;10921;53.614;9.882;2023-07-29T04:37:10;100368.69;;;20.52;100.00
21520;BME280;10921;53.614;9.882;2023-07-29T04:39:36;100372.44;;;20.51;100.00
21520;BME280;10921;53.614;9.882;2023-07-29T04:42:03;100367.44;;;20.55;100.00
21520;BME280;10921;53.614;9.882;2023-07-29T04:44:30;100368.88;;;20.57;100.00
21520;BME280;10921;53.614;9.882;2023-07-29T04:46:56;100341.25;;;20.42;100.00
21520;BME280;10921;53.614;9.882;2023-07-29T04:49:23;100358.91;;;20.51;100.00
21520;BME280;10921;53.614;9.882;2023-07-29T04:51:49;100358.88;;;20.58;100.00
21520;BME280;10921;53.614;9.882;2023-07-29T04:54:16;100356.97;;;20.58;100.00
21520;BME280;10921;53.614;9.882;2023-07-29T04:56:42;100351.16;;;20.55;100.00
21520;BME280;10921;53.614;9.882;2023-07-29T04:59:09;100342.19;;;20.54;100.00
21520;BME280;10921;53.614;9.882;2023-07-29T05:01:35;100345.34;;;20.51;100.00
21520;BME280;10921;53.614;9.882;2023-07-29T05:04:05;100354.50;;;20.57;100.00
21520;BME280;10921;53.614;9.882;2023-07-29T05:06:32;100358.44;;;20.61;100.00
21520;BME280;10921;53.614;9.882;2023-07-29T05:09:13;100358.59;;;20.66;100.00
21520;BME280;10921;53.614;9.882;2023-07-29T05:11:39;100305.00;;;20.36;100.00
21520;BME280;10921;53.614;9.882;2023-07-29T05:14:06;100328.69;;;20.48;100.00
21520;BME280;10921;53.614;9.882;2023-07-29T05:16:32;100344.81;;;20.67;100.00
21520;BME280;10921;53.614;9.882;2023-07-29T05:18:59;100346.25;;;20.70;100.00
21520;BME280;10921;53.614;9.882;2023-07-29T05:21:33;100346.22;;;20.77;100.00
21520;BME280;10921;53.614;9.882;2023-07-29T05:24:00;100351.59;;;20.83;100.00
21520;BME280;10921;53.614;9.882;2023-07-29T05:26:26;100351.59;;;20.83;100.00
21520;BME280;10921;53.614;9.882;2023-07-29T05:28:53;100353.22;;;20.91;100.00
21520;BME280;10921;53.614;9.882;2023-07-29T05:31:19;100366.25;;;21.00;100.00
21520;BME280;10921;53.614;9.882;2023-07-29T05:33:46;100363.72;;;21.05;100.00
21520;BME280;10921;53.614;9.882;2023-07-29T05:36:12;100362.00;;;21.11;100.00
21520;BME280;10921;53.614;9.882;2023-07-29T05:38:39;100357.56;;;21.17;100.00
21520;BME280;10921;53.614;9.882;2023-07-29T05:41:05;100353.19;;;21.22;100.00
21520;BME280;10921;53.614;9.882;2023-07-29T05:43:32;100362.28;;;21.28;100.00
21520;BME280;10921;53.614;9.882;2023-07-29T05:45:58;100357.03;;;21.33;100.00
21520;BME280;10921;53.614;9.882;2023-07-29T05:48:25;100356.81;;;21.34;100.00
21520;BME280;10921;53.614;9.882;2023-07-29T05:50:51;100356.13;;;21.39;100.00
21520;BME280;10921;53.614;9.882;2023-07-29T05:53:18;100362.16;;;21.41;100.00
21520;BME280;10921;53.614;9.882;2023-07-29T05:55:45;100354.50;;;21.38;100.00
21520;BME280;10921;53.614;9.882;2023-07-29T05:58:11;100353.28;;;21.34;100.00
21520;BME280;10921;53.614;9.882;2023-07-29T06:00:38;100300.13;;;21.01;100.00
21520;BME280;10921;53.614;9.882;2023-07-29T06:03:04;100366.19;;;21.38;100.00
21520;BME280;10921;53.614;9.882;2023-07-29T06:05:31;100356.38;;;21.37;100.00
21520;BME280;10921;53.614;9.882;2023-07-29T06:07:57;100360.16;;;21.36;100.00
21520;BME280;10921;53.614;9.882;2023-07-29T06:10:24;100364.53;;;21.37;100.00
21520;BME280;10921;53.614;9.882;2023-07-29T06:12:50;100361.34;;;21.40;100.00
21520;BME280;10921;53.614;9.882;2023-07-29T06:15:17;100352.53;;;21.45;100.00
21520;BME280;10921;53.614;9.882;2023-07-29T06:17:44;100346.66;;;21.48;100.00
21520;BME280;10921;53.614;9.882;2023-07-29T06:20:10;100335.19;;;21.46;100.00
21520;BME280;10921;53.614;9.882;2023-07-29T06:22:37;100340.78;;;21.51;99.97
21520;BME280;10921;53.614;9.882;2023-07-29T06:25:04;100354.03;;;21.59;100.00
21520;BME280;10921;53.614;9.882;2023-07-29T06:27:30;100332.31;;;21.59;99.98
21520;BME280;10921;53.614;9.882;2023-07-29T06:29:57;100312.66;;;21.46;99.36
21520;BME280;10921;53.614;9.882;2023-07-29T06:32:23;100329.00;;;21.57;98.58
21520;BME280;10921;53.614;9.882;2023-07-29T06:34:50;100328.94;;;21.64;97.47
21520;BME280;10921;53.614;9.882;2023-07-29T06:37:18;100316.66;;;21.61;98.29
21520;BME280;10921;53.614;9.882;2023-07-29T06:39:44;100316.03;;;21.59;99.11
21520;BME280;10921;53.614;9.882;2023-07-29T06:42:11;100295.75;;;21.44;98.62
21520;BME280;10921;53.614;9.882;2023-07-29T06:44:39;100324.25;;;21.71;98.07
21520;BME280;10921;53.614;9.882;2023-07-29T06:47:06;100332.78;;;21.74;98.14
21520;BME280;10921;53.614;9.882;2023-07-29T06:49:33;100320.03;;;21.75;98.96
21520;BME280;10921;53.614;9.882;2023-07-29T06:52:00;100320.56;;;21.84;100.00
21520;BME280;10921;53.614;9.882;2023-07-29T06:54:27;100319.25;;;21.86;99.63
21520;BME280;10921;53.614;9.882;2023-07-29T06:56:53;100298.00;;;21.83;99.47
21520;BME280;10921;53.614;9.882;2023-07-29T06:59:20;100335.72;;;22.09;98.73
21520;BME280;10921;53.614;9.882;2023-07-29T07:01:47;100324.03;;;22.09;97.32
21520;BME280;10921;53.614;9.882;2023-07-29T07:04:13;100343.94;;;22.21;96.33
21520;BME280;10921;53.614;9.882;2023-07-29T07:06:40;100334.56;;;22.17;94.93
21520;BME280;10921;53.614;9.882;2023-07-29T07:09:06;100341.88;;;22.17;93.75
21520;BME280;10921;53.614;9.882;2023-07-29T07:11:33;100351.19;;;22.09;93.11
21520;BME280;10921;53.614;9.882;2023-07-29T07:14:00;100326.66;;;21.97;93.67
21520;BME280;10921;53.614;9.882;2023-07-29T07:16:26;100354.16;;;22.07;93.18
21520;BME280;10921;53.614;9.882;2023-07-29T07:18:56;100359.41;;;22.02;93.43
21520;BME280;10921;53.614;9.882;2023-07-29T07:21:23;100347.78;;;21.95;94.47
21520;BME280;10921;53.614;9.882;2023-07-29T07:23:50;100363.47;;;21.93;94.66
21520;BME280;10921;53.614;9.882;2023-07-29T07:26:16;100361.44;;;21.89;94.89
21520;BME280;10921;53.614;9.882;2023-07-29T07:28:43;100359.44;;;21.84;95.07
21520;BME280;10921;53.614;9.882;2023-07-29T07:31:09;100326.22;;;21.64;95.50
21520;BME280;10921;53.614;9.882;2023-07-29T07:33:36;100351.56;;;21.76;95.64
21520;BME280;10921;53.614;9.882;2023-07-29T07:36:02;100328.03;;;21.70;96.84
21520;BME280;10921;53.614;9.882;2023-07-29T07:38:29;100344.63;;;21.80;96.61
21520;BME280;10921;53.614;9.882;2023-07-29T07:40:56;100347.72;;;21.84;96.84
21520;BME280;10921;53.614;9.882;2023-07-29T07:43:23;100349.97;;;21.87;97.26
21520;BME280;10921;53.614;9.882;2023-07-29T07:45:51;100349.28;;;21.91;97.48
21520;BME280;10921;53.614;9.882;2023-07-29T07:48:23;100361.38;;;21.95;97.07
21520;BME280;10921;53.614;9.882;2023-07-29T07:50:50;100354.66;;;21.98;96.57
21520;BME280;10921;53.614;9.882;2023-07-29T07:53:16;100290.31;;;21.62;96.81
21520;BME280;10921;53.614;9.882;2023-07-29T07:55:43;100322.91;;;21.80;96.65
21520;BME280;10921;53.614;9.882;2023-07-29T07:58:10;100354.59;;;22.04;95.46
21520;BME280;10921;53.614;9.882;2023-07-29T08:00:36;100351.03;;;22.04;94.63
21520;BME280;10921;53.614;9.882;2023-07-29T08:03:03;100299.91;;;21.64;93.90
21520;BME280;10921;53.614;9.882;2023-07-29T08:05:30;100355.50;;;21.98;93.57
21520;BME280;10921;53.614;9.882;2023-07-29T08:07:56;100342.44;;;21.89;93.87
21520;BME280;10921;53.614;9.882;2023-07-29T08:10:24;100341.16;;;21.91;94.32
21520;BME280;10921;53.614;9.882;2023-07-29T08:12:50;100344.25;;;21.95;95.28
21520;BME280;10921;53.614;9.882;2023-07-29T08:15:16;100350.50;;;21.95;94.98
21520;BME280;10921;53.614;9.882;2023-07-29T08:17:43;100345.47;;;21.99;95.53
21520;BME280;10921;53.614;9.882;2023-07-29T08:20:09;100299.25;;;21.69;95.41
21520;BME280;10921;53.614;9.882;2023-07-29T08:22:36;100356.25;;;22.05;94.90
21520;BME280;10921;53.614;9.882;2023-07-29T08:25:04;100349.16;;;22.04;94.65
21520;BME280;10921;53.614;9.882;2023-07-29T08:27:33;100330.03;;;21.99;94.55
21520;BME280;10921;53.614;9.882;2023-07-29T08:29:59;100337.38;;;22.10;93.75
21520;BME280;10921;53.614;9.882;2023-07-29T08:32:26;100344.47;;;22.12;93.12
21520;BME280;10921;53.614;9.882;2023-07-29T08:34:52;100348.25;;;22.10;93.01
21520;BME280;10921;53.614;9.882;2023-07-29T08:37:19;100352.75;;;22.17;93.07
21520;BME280;10921;53.614;9.882;2023-07-29T08:39:45;100348.38;;;22.16;92.96
21520;BME280;10921;53.614;9.882;2023-07-29T08:42:12;100344.47;;;22.12;93.11
21520;BME280;10921;53.614;9.882;2023-07-29T08:44:43;100369.13;;;22.28;93.01
21520;BME280;10921;53.614;9.882;2023-07-29T08:47:11;100334.78;;;22.16;92.79
21520;BME280;10921;53.614;9.882;2023-07-29T08:49:40;100373.56;;;22.41;92.54
21520;BME280;10921;53.614;9.882;2023-07-29T08:52:09;100317.72;;;22.27;93.64
21520;BME280;10921;53.614;9.882;2023-07-29T08:54:36;100354.47;;;22.59;92.29
21520;BME280;10921;53.614;9.882;2023-07-29T08:57:03;100354.13;;;22.67;91.29
21520;BME280;10921;53.614;9.882;2023-07-29T08:59:30;100356.91;;;22.79;89.66
21520;BME280;10921;53.614;9.882;2023-07-29T09:01:58;100311.53;;;22.61;88.92
21520;BME280;10921;53.614;9.882;2023-07-29T09:04:24;100329.72;;;22.79;88.40
21520;BME280;10921;53.614;9.882;2023-07-29T09:06:52;100347.00;;;23.08;88.62
21520;BME280;10921;53.614;9.882;2023-07-29T09:09:20;100354.16;;;23.32;87.66
21520;BME280;10921;53.614;9.882;2023-07-29T09:11:48;100323.59;;;23.30;85.56
21520;BME280;10921;53.614;9.882;2023-07-29T09:14:17;100343.13;;;23.62;85.28
21520;BME280;10921;53.614;9.882;2023-07-29T09:16:44;100343.94;;;23.74;82.76
21520;BME280;10921;53.614;9.882;2023-07-29T09:19:11;100327.47;;;23.69;81.21
21520;BME280;10921;53.614;9.882;2023-07-29T09:21:41;100329.69;;;23.84;81.36
21520;BME280;10921;53.614;9.882;2023-07-29T09:24:08;100296.34;;;23.77;80.16
21520;BME280;10921;53.614;9.882;2023-07-29T09:26:35;100345.16;;;24.07;79.22
21520;BME280;10921;53.614;9.882;2023-07-29T09:29:03;100346.09;;;24.12;78.94
21520;BME280;10921;53.614;9.882;2023-07-29T09:31:29;100334.94;;;24.14;78.57
21520;BME280;10921;53.614;9.882;2023-07-29T09:34:01;100331.22;;;24.32;81.07
21520;BME280;10921;53.614;9.882;2023-07-29T09:36:31;100307.84;;;24.36;83.09
21520;BME280;10921;53.614;9.882;2023-07-29T09:38:58;100332.63;;;24.79;78.64
21520;BME280;10921;53.614;9.882;2023-07-29T09:41:26;100328.28;;;25.12;76.09
21520;BME280;10921;53.614;9.882;2023-07-29T09:43:59;100311.00;;;25.45;76.32
21520;BME280;10921;53.614;9.882;2023-07-29T09:46:32;100330.59;;;25.97;74.31
21520;BME280;10921;53.614;9.882;2023-07-29T09:48:59;100282.25;;;26.03;67.91
21520;BME280;10921;53.614;9.882;2023-07-29T09:51:31;100307.44;;;26.58;69.69
21520;BME280;10921;53.614;9.882;2023-07-29T09:54:02;100315.22;;;26.99;66.00
21520;BME280;10921;53.614;9.882;2023-07-29T09:56:28;100321.13;;;27.22;65.39
21520;BME280;10921;53.614;9.882;2023-07-29T09:58:56;100311.13;;;27.43;62.97
21520;BME280;10921;53.614;9.882;2023-07-29T10:01:24;100311.03;;;27.70;61.92
21520;BME280;10921;53.614;9.882;2023-07-29T10:03:51;100322.06;;;27.85;60.75
21520;BME280;10921;53.614;9.882;2023-07-29T10:06:18;100323.47;;;27.93;59.73
21520;BME280;10921;53.614;9.882;2023-07-29T10:08:47;100320.47;;;27.99;57.99
21520;BME280;10921;53.614;9.882;2023-07-29T10:11:14;100304.00;;;27.94;58.29
21520;BME280;10921;53.614;9.882;2023-07-29T10:13:40;100312.28;;;28.15;57.63
21520;BME280;10921;53.614;9.882;2023-07-29T10:16:10;100318.94;;;28.24;57.01
21520;BME280;10921;53.614;9.882;2023-07-29T10:18:36;100313.44;;;28.29;54.24
21520;BME280;10921;53.614;9.882;2023-07-29T10:21:05;100301.94;;;28.32;55.31
21520;BME280;10921;53.614;9.882;2023-07-29T10:23:34;100319.25;;;28.53;55.20
21520;BME280;10921;53.614;9.882;2023-07-29T10:26:10;100285.22;;;28.49;55.00
21520;BME280;10921;53.614;9.882;2023-07-29T10:28:40;100308.03;;;28.69;52.17
21520;BME280;10921;53.614;9.882;2023-07-29T10:31:07;100311.84;;;28.74;53.60
21520;BME280;10921;53.614;9.882;2023-07-29T10:33:35;100298.69;;;28.70;49.99
21520;BME280;10921;53.614;9.882;2023-07-29T10:36:04;100306.63;;;28.67;51.02
21520;BME280;10921;53.614;9.882;2023-07-29T10:38:31;100311.28;;;28.36;52.26
21520;BME280;10921;53.614;9.882;2023-07-29T10:40:58;100300.50;;;28.09;53.68
21520;BME280;10921;53.614;9.882;2023-07-29T10:45:57;100310.31;;;27.95;54.27
21520;BME280;10921;53.614;9.882;2023-07-29T10:48:40;100292.06;;;27.58;53.80
21520;BME280;10921;53.614;9.882;2023-07-29T10:54:11;100291.31;;;27.26;55.35
21520;BME280;10921;53.614;9.882;2023-07-29T10:56:43;100306.34;;;27.18;55.00
21520;BME280;10921;53.614;9.882;2023-07-29T11:01:51;100267.28;;;26.64;55.97
21520;BME280;10921;53.614;9.882;2023-07-29T11:20:06;100264.78;;;27.37;55.01
21520;BME280;10921;53.614;9.882;2023-07-29T11:22:36;100290.22;;;27.74;53.26
21520;BME280;10921;53.614;9.882;2023-07-29T11:25:04;100274.09;;;27.98;52.40
21520;BME280;10921;53.614;9.882;2023-07-29T11:27:35;100287.94;;;28.33;51.92
21520;BME280;10921;53.614;9.882;2023-07-29T11:30:04;100290.44;;;28.65;52.19
21520;BME280;10921;53.614;9.882;2023-07-29T11:32:32;100297.63;;;28.87;50.26
21520;BME280;10921;53.614;9.882;2023-07-29T11:35:10;100299.47;;;29.22;50.63
21520;BME280;10921;53.614;9.882;2023-07-29T11:37:38;100300.03;;;29.29;47.83
21520;BME280;10921;53.614;9.882;2023-07-29T11:40:05;100288.19;;;29.44;47.00
21520;BME280;10921;53.614;9.882;2023-07-29T11:42:33;100299.97;;;29.49;47.55
21520;BME280;10921;53.614;9.882;2023-07-29T11:45:02;100298.38;;;29.43;46.44
21520;BME280;10921;53.614;9.882;2023-07-29T11:47:30;100298.75;;;29.86;47.40
21520;BME280;10921;53.614;9.882;2023-07-29T11:49:58;100306.03;;;29.51;47.78
21520;BME280;10921;53.614;9.882;2023-07-29T11:52:27;100273.91;;;29.26;48.80
21520;BME280;10921;53.614;9.882;2023-07-29T11:54:54;100302.19;;;29.37;47.16
21520;BME280;10921;53.614;9.882;2023-07-29T11:57:21;100293.97;;;29.42;46.42
21520;BME280;10921;53.614;9.882;2023-07-29T11:59:47;100270.63;;;29.24;47.36
21520;BME280;10921;53.614;9.882;2023-07-29T12:02:16;100283.25;;;29.25;45.96
21520;BME280;10921;53.614;9.882;2023-07-29T12:04:44;100287.06;;;29.34;45.91
21520;BME280;10921;53.614;9.882;2023-07-29T12:07:13;100289.28;;;29.37;46.76
21520;BME280;10921;53.614;9.882;2023-07-29T12:09:42;100297.00;;;29.41;46.27
21520;BME280;10921;53.614;9.882;2023-07-29T12:12:09;100292.31;;;29.41;45.71
21520;BME280;10921;53.614;9.882;2023-07-29T12:14:35;100297.50;;;29.53;46.15
21520;BME280;10921;53.614;9.882;2023-07-29T12:17:04;100301.06;;;29.58;46.34
21520;BME280;10921;53.614;9.882;2023-07-29T12:19:36;100290.59;;;29.65;44.92
21520;BME280;10921;53.614;9.882;2023-07-29T12:22:04;100298.31;;;29.63;45.37
21520;BME280;10921;53.614;9.882;2023-07-29T12:24:32;100310.09;;;29.64;43.20
21520;BME280;10921;53.614;9.882;2023-07-29T12:27:02;100288.16;;;29.59;43.53
21520;BME280;10921;53.614;9.882;2023-07-29T12:29:28;100275.72;;;29.66;44.01
21520;BME280;10921;53.614;9.882;2023-07-29T12:32:02;100294.88;;;29.92;44.52
21520;BME280;10921;53.614;9.882;2023-07-29T12:34:30;100291.59;;;29.85;43.49
21520;BME280;10921;53.614;9.882;2023-07-29T12:36:58;100277.28;;;29.93;43.45
21520;BME280;10921;53.614;9.882;2023-07-29T12:39:28;100284.13;;;30.00;43.21
21520;BME280;10921;53.614;9.882;2023-07-29T12:41:58;100272.34;;;29.85;41.19
21520;BME280;10921;53.614;9.882;2023-07-29T12:44:27;100291.84;;;29.98;42.09
21520;BME280;10921;53.614;9.882;2023-07-29T12:46:53;100293.19;;;29.96;42.39
21520;BME280;10921;53.614;9.882;2023-07-29T12:49:20;100269.03;;;29.88;43.28
21520;BME280;10921;53.614;9.882;2023-07-29T12:51:46;100285.78;;;30.01;43.39
21520;BME280;10921;53.614;9.882;2023-07-29T12:54:13;100294.00;;;30.06;42.84
21520;BME280;10921;53.614;9.882;2023-07-29T12:56:39;100292.09;;;30.07;42.34
21520;BME280;10921;53.614;9.882;2023-07-29T12:59:06;100288.25;;;30.03;43.58
21520;BME280;10921;53.614;9.882;2023-07-29T13:01:33;100295.44;;;29.89;42.90
21520;BME280;10921;53.614;9.882;2023-07-29T13:03:59;100291.13;;;29.72;44.09
21520;BME280;10921;53.614;9.882;2023-07-29T13:06:26;100270.06;;;29.27;44.21
21520;BME280;10921;53.614;9.882;2023-07-29T13:08:54;100238.81;;;28.88;44.69
21520;BME280;10921;53.614;9.882;2023-07-29T13:11:20;100296.19;;;29.04;45.95
21520;BME280;10921;53.614;9.882;2023-07-29T13:13:47;100242.69;;;28.56;46.56